createdAt,value
2023-02-21T00:01:16.863Z,99610.84
2023-02-21T00:02:37.858Z,99623.56
2023-02-21T00:03:58.375Z,99621.34
2023-02-21T00:05:18.837Z,99620.53
2023-02-21T00:06:39.366Z,99613.09
2023-02-21T00:08:00.368Z,99625.72
2023-02-21T00:09:21.025Z,99622.69
2023-02-21T00:10:41.435Z,99616.88
2023-02-21T00:12:02.988Z,99614.94
2023-02-21T00:13:24.089Z,99621.13
2023-02-21T00:14:45.108Z,99617.19
2023-02-21T00:16:05.605Z,99614.16
2023-02-21T00:17:25.971Z,99612.87
2023-02-21T00:18:46.848Z,99606.31
2023-02-21T00:20:07.427Z,99600.38
2023-02-21T00:21:27.937Z,99600.16
2023-02-21T00:22:48.344Z,99598.88
2023-02-21T00:24:09.336Z,99600.78
2023-02-21T00:25:29.733Z,99612.06
2023-02-21T00:26:50.124Z,99600.28
2023-02-21T00:28:10.551Z,99601.94
2023-02-21T00:29:31.620Z,99604.03
2023-02-21T00:30:52.237Z,99611.53
2023-02-21T00:32:13.631Z,99598.28
2023-02-21T00:33:33.933Z,99600.91
2023-02-21T00:34:54.900Z,99599.75
2023-02-21T00:36:15.335Z,99604.31
2023-02-21T00:37:35.876Z,99603.53
2023-02-21T00:38:56.662Z,99613.53
2023-02-21T00:40:17.583Z,99599.88
2023-02-21T00:41:40.329Z,99606.59
2023-02-21T00:43:00.718Z,99602.69
2023-02-21T00:44:21.171Z,99606.19
2023-02-21T00:45:43.152Z,99600.97
2023-02-21T00:47:03.544Z,99595.72
2023-02-21T00:48:23.926Z,99601.03
2023-02-21T00:49:44.289Z,99590.63
2023-02-21T00:51:05.388Z,99606.19
2023-02-21T00:52:26.005Z,99602.88
2023-02-21T00:53:46.515Z,99599.78
2023-02-21T00:55:07.091Z,99592.62
2023-02-21T00:56:28.086Z,99595.78
2023-02-21T00:57:48.453Z,99595.50
2023-02-21T00:59:08.868Z,99591.47
2023-02-21T01:00:36.410Z,99595.84
2023-02-21T01:01:57.314Z,99594.00
2023-02-21T01:03:17.832Z,99593.41
2023-02-21T01:04:38.306Z,99596.31
2023-02-21T01:05:59.232Z,99593.69
2023-02-21T01:07:20.354Z,99589.87
2023-02-21T01:08:40.714Z,99584.31
2023-02-21T01:10:01.108Z,99578.38
2023-02-21T01:11:21.491Z,99582.47
2023-02-21T01:12:42.795Z,99577.28
2023-02-21T01:14:03.231Z,99580.38
2023-02-21T01:15:24.712Z,99583.63
2023-02-21T01:16:50.219Z,99579.66
2023-02-21T01:18:11.187Z,99573.47
2023-02-21T01:19:31.759Z,99562.88
2023-02-21T01:20:52.184Z,99577.41
2023-02-21T01:22:12.661Z,99577.03
2023-02-21T01:23:33.627Z,99566.16
2023-02-21T01:24:53.913Z,99575.03
2023-02-21T01:26:14.257Z,99574.44
2023-02-21T01:27:34.866Z,99572.09
2023-02-21T01:28:55.916Z,99566.91
2023-02-21T01:30:18.378Z,99573.91
2023-02-21T01:31:40.443Z,99576.34
2023-02-21T01:33:00.864Z,99566.25
2023-02-21T01:34:21.947Z,99565.22
2023-02-21T01:35:42.445Z,99568.22
2023-02-21T01:37:02.850Z,99565.06
2023-02-21T01:38:23.301Z,99563.47
2023-02-21T01:39:43.998Z,99559.28
2023-02-21T01:41:04.424Z,99557.28
2023-02-21T01:42:24.958Z,99552.72
2023-02-21T01:43:47.341Z,99553.75
2023-02-21T01:45:07.843Z,99552.19
2023-02-21T01:46:37.618Z,99560.41
2023-02-21T01:47:58.620Z,99544.22
2023-02-21T01:49:23.820Z,99552.78
2023-02-21T01:50:48.935Z,99555.22
2023-02-21T01:52:09.820Z,99551.41
2023-02-21T01:53:48.342Z,99550.81
2023-02-21T01:55:12.512Z,99542.00
2023-02-21T01:56:33.414Z,99540.19
2023-02-21T01:57:54.936Z,99545.59
2023-02-21T01:59:19.487Z,99547.81
2023-02-21T02:00:40.542Z,99550.41
2023-02-21T02:02:19.243Z,99540.03
2023-02-21T02:03:40.142Z,99548.00
2023-02-21T02:05:03.086Z,99550.00
2023-02-21T02:06:32.986Z,99541.59
2023-02-21T02:07:56.147Z,99539.22
2023-02-21T02:09:16.673Z,99538.41
2023-02-21T02:10:38.233Z,99534.78
2023-02-21T02:12:11.041Z,99531.00
2023-02-21T02:13:28.336Z,99527.19
2023-02-21T02:15:10.649Z,99531.38
2023-02-21T02:16:15.769Z,99536.41
2023-02-21T02:17:35.910Z,99528.22
2023-02-21T02:19:03.103Z,99534.03
2023-02-21T02:20:38.422Z,99534.59
2023-02-21T02:21:59.356Z,99538.41
2023-02-21T02:23:22.953Z,99540.84
2023-02-21T02:24:58.481Z,99538.03
2023-02-21T02:26:18.413Z,99529.22
2023-02-21T02:27:37.738Z,99536.41
2023-02-21T02:28:42.532Z,99523.81
2023-02-21T02:30:03.357Z,99529.63
2023-02-21T02:31:32.680Z,99514.34
2023-02-21T02:33:00.678Z,99517.97
2023-02-21T02:34:08.417Z,99520.59
2023-02-21T02:35:30.425Z,99522.78
2023-02-21T02:36:37.081Z,99526.22
2023-02-21T02:38:02.321Z,99521.59
2023-02-21T02:39:10.431Z,99521.59
2023-02-21T02:40:19.435Z,99528.59
2023-02-21T02:41:59.880Z,99521.59
2023-02-21T02:43:32.652Z,99522.63
2023-02-21T02:44:41.271Z,99515.00
2023-02-21T02:45:53.918Z,99515.38
2023-02-21T02:46:59.542Z,99516.19
2023-02-21T02:48:23.608Z,99518.59
2023-02-21T02:49:29.812Z,99512.97
2023-02-21T02:50:33.231Z,99513.78
2023-02-21T02:51:35.877Z,99517.19
2023-02-21T02:52:49.071Z,99513.37
2023-02-21T02:53:51.442Z,99509.97
2023-02-21T02:55:20.423Z,99505.97
2023-02-21T02:56:28.812Z,99503.38
2023-02-21T02:57:41.071Z,99506.78
2023-02-21T02:58:52.165Z,99501.81
2023-02-21T02:59:54.777Z,99499.97
2023-02-21T03:01:15.586Z,99505.59
2023-02-21T03:02:36.001Z,99507.97
2023-02-21T03:03:49.748Z,99499.78
2023-02-21T03:05:10.386Z,99515.19
2023-02-21T03:06:38.209Z,99506.78
2023-02-21T03:07:58.799Z,99509.16
2023-02-21T03:09:12.524Z,99504.78
2023-02-21T03:10:32.890Z,99504.38
2023-02-21T03:11:43.530Z,99508.56
2023-02-21T03:12:51.908Z,99504.38
2023-02-21T03:14:00.238Z,99501.34
2023-02-21T03:15:12.397Z,99510.38
2023-02-21T03:16:19.910Z,99503.97
2023-02-21T03:17:26.488Z,99500.94
2023-02-21T03:18:43.135Z,99501.34
2023-02-21T03:19:48.189Z,99501.16
2023-02-21T03:20:56.133Z,99508.00
2023-02-21T03:22:07.016Z,99495.97
2023-02-21T03:23:12.689Z,99505.16
2023-02-21T03:24:17.818Z,99498.75
2023-02-21T03:25:23.433Z,99497.78
2023-02-21T03:26:28.560Z,99503.56
2023-02-21T03:27:32.844Z,99496.56
2023-02-21T03:28:36.902Z,99508.53
2023-02-21T03:29:40.316Z,99510.53
2023-02-21T03:30:44.953Z,99502.75
2023-02-21T03:31:55.184Z,99503.59
2023-02-21T03:32:58.001Z,99510.75
2023-02-21T03:34:00.244Z,99521.97
2023-02-21T03:35:03.724Z,99517.56
2023-02-21T03:36:08.694Z,99510.94
2023-02-21T03:37:21.926Z,99521.97
2023-02-21T03:38:24.211Z,99510.34
2023-02-21T03:39:26.464Z,99508.75
2023-02-21T03:40:31.286Z,99510.56
2023-02-21T03:41:33.550Z,99504.75
2023-02-21T03:42:35.750Z,99511.75
2023-02-21T03:43:37.817Z,99515.19
2023-02-21T03:44:40.129Z,99506.75
2023-02-21T03:45:42.049Z,99511.97
2023-02-21T03:46:44.254Z,99510.38
2023-02-21T03:47:46.278Z,99514.56
2023-02-21T03:48:48.206Z,99511.94
2023-02-21T03:49:50.571Z,99506.53
2023-02-21T03:50:52.593Z,99509.09
2023-02-21T03:51:54.637Z,99509.28
2023-02-21T03:52:56.541Z,99517.31
2023-02-21T03:53:58.453Z,99512.28
2023-02-21T03:55:02.864Z,99506.72
2023-02-21T03:56:05.541Z,99512.34
2023-02-21T03:57:08.719Z,99506.72
2023-02-21T03:58:13.295Z,99507.50
2023-02-21T03:59:15.541Z,99508.28
2023-02-21T04:00:18.680Z,99503.09
2023-02-21T04:01:24.336Z,99510.34
2023-02-21T04:02:27.148Z,99503.31
2023-02-21T04:03:29.296Z,99516.13
2023-02-21T04:04:31.523Z,99513.50
2023-02-21T04:05:34.869Z,99508.72
2023-02-21T04:06:38.013Z,99509.09
2023-02-21T04:07:39.971Z,99509.06
2023-02-21T04:08:41.962Z,99515.91
2023-02-21T04:09:44.633Z,99514.09
2023-02-21T04:10:52.320Z,99515.69
2023-02-21T04:11:55.310Z,99522.13
2023-02-21T04:12:57.570Z,99518.34
2023-02-21T04:13:59.593Z,99509.50
2023-02-21T04:15:01.682Z,99512.28
2023-02-21T04:16:04.346Z,99507.50
2023-02-21T04:17:07.335Z,99512.34
2023-02-21T04:18:09.322Z,99507.50
2023-02-21T04:19:11.552Z,99514.09
2023-02-21T04:20:15.222Z,99510.31
2023-02-21T04:21:18.709Z,99512.69
2023-02-21T04:22:22.764Z,99507.88
2023-02-21T04:23:24.719Z,99508.69
2023-02-21T04:24:27.219Z,99507.69
2023-02-21T04:25:29.176Z,99505.91
2023-02-21T04:26:34.965Z,99504.91
2023-02-21T04:27:37.422Z,99510.72
2023-02-21T04:28:39.687Z,99507.31
2023-02-21T04:29:41.953Z,99506.53
2023-02-21T04:30:43.822Z,99511.53
2023-02-21T04:31:45.863Z,99511.50
2023-02-21T04:32:48.429Z,99514.66
2023-02-21T04:34:02.499Z,99510.88
2023-02-21T04:35:11.859Z,99522.09
2023-02-21T04:36:13.993Z,99524.72
2023-02-21T04:37:16.114Z,99522.31
2023-02-21T04:38:18.738Z,99521.09
2023-02-21T04:39:20.640Z,99519.50
2023-02-21T04:40:23.134Z,99525.53
2023-02-21T04:41:24.985Z,99524.72
2023-02-21T04:42:26.898Z,99516.47
2023-02-21T04:43:29.113Z,99525.50
2023-02-21T04:44:31.024Z,99519.91
2023-02-21T04:45:32.947Z,99516.94
2023-02-21T04:46:34.894Z,99511.75
2023-02-21T04:47:37.095Z,99511.75
2023-02-21T04:48:39.252Z,99514.94
2023-02-21T04:49:41.134Z,99507.56
2023-02-21T04:50:43.077Z,99507.97
2023-02-21T04:51:44.956Z,99509.56
2023-02-21T04:52:47.823Z,99509.94
2023-02-21T04:53:50.829Z,99511.72
2023-02-21T04:54:52.674Z,99513.13
2023-02-21T04:55:54.556Z,99514.56
2023-02-21T04:56:56.559Z,99515.19
2023-02-21T04:57:58.465Z,99518.72
2023-02-21T04:59:00.647Z,99519.75
2023-02-21T05:00:02.655Z,99521.97
2023-02-21T05:01:04.975Z,99524.19
2023-02-21T05:02:08.449Z,99520.78
2023-02-21T05:03:10.376Z,99517.81
2023-02-21T05:04:12.602Z,99518.56
2023-02-21T05:05:14.582Z,99514.81
2023-02-21T05:06:21.245Z,99520.03
2023-02-21T05:07:23.317Z,99519.81
2023-02-21T05:08:27.920Z,99514.81
2023-02-21T05:09:31.193Z,99511.59
2023-02-21T05:10:44.854Z,99511.56
2023-02-21T05:11:47.226Z,99517.56
2023-02-21T05:12:49.166Z,99518.00
2023-02-21T05:13:51.799Z,99510.38
2023-02-21T05:14:53.944Z,99514.00
2023-02-21T05:15:55.891Z,99504.59
2023-02-21T05:16:57.739Z,99499.16
2023-02-21T05:17:59.719Z,99503.59
2023-02-21T05:19:02.729Z,99508.38
2023-02-21T05:20:11.785Z,99509.31
2023-02-21T05:21:14.932Z,99511.56
2023-02-21T05:22:20.353Z,99502.53
2023-02-21T05:23:35.642Z,99500.75
2023-02-21T05:24:42.691Z,99494.75
2023-02-21T05:25:45.298Z,99496.75
2023-02-21T05:26:47.149Z,99496.72
2023-02-21T05:27:50.046Z,99508.69
2023-02-21T05:28:52.708Z,99497.53
2023-02-21T05:29:54.636Z,99508.88
2023-02-21T05:30:58.602Z,99500.09
2023-02-21T05:32:02.393Z,99499.22
2023-02-21T05:33:04.318Z,99511.34
2023-02-21T05:34:06.234Z,99509.00
2023-02-21T05:35:09.743Z,99498.97
2023-02-21T05:36:12.030Z,99507.84
2023-02-21T05:37:17.664Z,99511.81
2023-02-21T05:38:21.882Z,99502.84
2023-02-21T05:39:23.850Z,99503.25
2023-02-21T05:40:25.891Z,99503.50
2023-02-21T05:41:28.158Z,99499.31
2023-02-21T05:42:32.689Z,99501.44
2023-02-21T05:43:34.611Z,99495.63
2023-02-21T05:44:36.506Z,99496.78
2023-02-21T05:45:38.431Z,99495.84
2023-02-21T05:46:41.007Z,99497.87
2023-02-21T05:47:42.947Z,99497.69
2023-02-21T05:48:44.822Z,99491.06
2023-02-21T05:49:47.104Z,99489.81
2023-02-21T05:50:49.261Z,99492.44
2023-02-21T05:51:51.610Z,99497.87
2023-02-21T05:52:54.005Z,99492.66
2023-02-21T05:53:55.880Z,99498.91
2023-02-21T05:54:57.808Z,99495.50
2023-02-21T05:55:59.747Z,99501.12
2023-02-21T05:57:02.084Z,99501.50
2023-02-21T05:58:04.008Z,99505.91
2023-02-21T05:59:06.517Z,99504.72
2023-02-21T06:00:13.805Z,99509.50
2023-02-21T06:01:16.699Z,99506.66
2023-02-21T06:02:18.912Z,99505.47
2023-02-21T06:03:20.876Z,99509.91
2023-02-21T06:04:23.898Z,99508.25
2023-02-21T06:05:25.833Z,99511.88
2023-02-21T06:06:28.015Z,99505.06
2023-02-21T06:07:29.935Z,99507.84
2023-02-21T06:08:31.910Z,99513.44
2023-02-21T06:09:34.010Z,99511.88
2023-02-21T06:10:35.911Z,99511.28
2023-02-21T06:11:40.428Z,99519.13
2023-02-21T06:12:42.301Z,99512.09
2023-02-21T06:13:44.249Z,99507.06
2023-02-21T06:14:46.149Z,99503.19
2023-02-21T06:15:48.094Z,99515.00
2023-02-21T06:16:50.309Z,99522.88
2023-02-21T06:17:52.174Z,99518.28
2023-02-21T06:18:56.546Z,99528.28
2023-02-21T06:19:58.443Z,99533.44
2023-02-21T06:21:00.297Z,99534.47
2023-02-21T06:22:02.464Z,99540.22
2023-02-21T06:23:04.332Z,99542.59
2023-02-21T06:24:06.697Z,99533.63
2023-02-21T06:25:09.229Z,99534.41
2023-02-21T06:26:11.453Z,99526.91
2023-02-21T06:27:14.580Z,99538.88
2023-02-21T06:28:16.495Z,99535.13
2023-02-21T06:29:18.429Z,99534.88
2023-02-21T06:30:22.811Z,99540.44
2023-02-21T06:31:25.476Z,99542.75
2023-02-21T06:32:27.857Z,99542.63
2023-02-21T06:33:29.819Z,99536.44
2023-02-21T06:34:31.777Z,99538.66
2023-02-21T06:35:33.637Z,99538.41
2023-02-21T06:36:35.817Z,99533.19
2023-02-21T06:37:38.580Z,99550.69
2023-02-21T06:38:40.460Z,99533.94
2023-02-21T06:39:42.573Z,99549.34
2023-02-21T06:40:45.044Z,99546.97
2023-02-21T06:41:46.929Z,99551.44
2023-02-21T06:42:49.133Z,99548.78
2023-02-21T06:43:52.578Z,99557.75
2023-02-21T06:44:54.482Z,99557.16
2023-02-21T06:45:56.446Z,99567.59
2023-02-21T06:46:58.375Z,99558.31
2023-02-21T06:48:00.509Z,99561.94
2023-02-21T06:49:02.710Z,99562.91
2023-02-21T06:50:05.847Z,99562.91
2023-02-21T06:51:11.287Z,99557.28
2023-02-21T06:52:13.537Z,99559.72
2023-02-21T06:53:15.759Z,99557.63
2023-02-21T06:54:17.932Z,99555.25
2023-02-21T06:55:23.617Z,99556.72
2023-02-21T06:56:27.198Z,99552.34
2023-02-21T06:57:31.464Z,99546.41
2023-02-21T06:58:33.928Z,99554.09
2023-02-21T06:59:35.830Z,99560.56
2023-02-21T07:00:38.163Z,99566.41
2023-02-21T07:01:40.667Z,99561.59
2023-02-21T07:02:43.323Z,99559.97
2023-02-21T07:03:46.242Z,99555.94
2023-02-21T07:04:48.699Z,99553.34
2023-02-21T07:05:50.692Z,99546.50
2023-02-21T07:06:53.031Z,99546.03
2023-02-21T07:07:55.072Z,99539.94
2023-02-21T07:08:57.626Z,99538.28
2023-02-21T07:10:00.559Z,99544.53
2023-02-21T07:11:05.936Z,99553.44
2023-02-21T07:12:08.900Z,99558.22
2023-02-21T07:13:10.894Z,99557.50
2023-02-21T07:14:14.004Z,99559.91
2023-02-21T07:15:15.936Z,99565.66
2023-02-21T07:16:19.049Z,99566.56
2023-02-21T07:17:20.943Z,99574.34
2023-02-21T07:18:22.955Z,99566.94
2023-02-21T07:19:25.403Z,99565.16
2023-02-21T07:20:27.540Z,99563.28
2023-02-21T07:21:29.408Z,99568.78
2023-02-21T07:22:31.388Z,99568.97
2023-02-21T07:23:33.235Z,99565.63
2023-02-21T07:24:36.701Z,99569.19
2023-02-21T07:25:38.666Z,99572.09
2023-02-21T07:26:40.604Z,99571.84
2023-02-21T07:27:42.811Z,99573.13
2023-02-21T07:28:47.158Z,99566.81
2023-02-21T07:29:50.325Z,99576.84
2023-02-21T07:30:52.199Z,99567.84
2023-02-21T07:31:54.599Z,99577.88
2023-02-21T07:32:56.576Z,99575.47
2023-02-21T07:33:58.467Z,99576.44
2023-02-21T07:35:00.927Z,99575.56
2023-02-21T07:36:03.000Z,99573.78
2023-02-21T07:37:04.868Z,99580.88
2023-02-21T07:38:06.780Z,99583.72
2023-02-21T07:39:08.987Z,99586.81
2023-02-21T07:40:11.267Z,99577.06
2023-02-21T07:41:14.692Z,99585.44
2023-02-21T07:42:16.858Z,99580.34
2023-02-21T07:43:20.092Z,99574.94
2023-02-21T07:44:21.954Z,99583.19
2023-02-21T07:45:24.163Z,99580.22
2023-02-21T07:46:59.245Z,99581.37
2023-02-21T07:48:01.141Z,99581.91
2023-02-21T07:49:03.064Z,99583.13
2023-02-21T07:50:05.315Z,99576.59
2023-02-21T07:51:09.214Z,99579.13
2023-02-21T07:52:11.094Z,99574.03
2023-02-21T07:53:15.384Z,99579.31
2023-02-21T07:54:18.451Z,99582.91
2023-02-21T07:55:21.781Z,99580.91
2023-02-21T07:56:24.009Z,99577.47
2023-02-21T07:57:25.892Z,99569.00
2023-02-21T07:58:27.784Z,99563.91
2023-02-21T07:59:29.784Z,99578.94
2023-02-21T08:00:32.853Z,99566.91
2023-02-21T08:01:35.368Z,99580.84
2023-02-21T08:02:37.373Z,99579.97
2023-02-21T08:03:40.907Z,99579.13
2023-02-21T08:04:42.853Z,99575.44
2023-02-21T08:05:46.083Z,99576.63
2023-02-21T08:06:49.376Z,99570.00
2023-02-21T08:07:51.971Z,99567.13
2023-02-21T08:08:53.962Z,99567.41
2023-02-21T08:09:55.854Z,99554.41
2023-02-21T08:10:57.723Z,99567.00
2023-02-21T08:11:59.919Z,99563.88
2023-02-21T08:13:01.967Z,99554.28
2023-02-21T08:14:04.614Z,99556.56
2023-02-21T08:15:06.866Z,99559.00
2023-02-21T08:16:08.797Z,99564.56
2023-02-21T08:17:10.930Z,99562.41
2023-02-21T08:18:19.307Z,99556.06
2023-02-21T08:19:21.252Z,99555.03
2023-02-21T08:20:23.095Z,99557.09
2023-02-21T08:21:25.278Z,99558.25
2023-02-21T08:22:27.534Z,99566.75
2023-02-21T08:23:29.477Z,99564.09
2023-02-21T08:24:31.402Z,99563.25
2023-02-21T08:25:33.248Z,99559.22
2023-02-21T08:26:35.137Z,99564.78
2023-02-21T08:27:40.430Z,99553.00
2023-02-21T08:28:42.282Z,99550.59
2023-02-21T08:29:44.326Z,99560.91
2023-02-21T08:30:46.304Z,99568.44
2023-02-21T08:31:48.325Z,99564.53
2023-02-21T08:32:51.396Z,99561.91
2023-02-21T08:33:53.377Z,99568.00
2023-02-21T08:34:55.354Z,99559.03
2023-02-21T08:35:57.473Z,99560.78
2023-02-21T08:36:59.407Z,99555.09
2023-02-21T08:38:03.970Z,99562.22
2023-02-21T08:39:07.566Z,99563.81
2023-02-21T08:40:09.945Z,99569.94
2023-02-21T08:41:11.884Z,99556.66
2023-02-21T08:42:14.817Z,99571.09
2023-02-21T08:43:17.032Z,99564.47
2023-02-21T08:44:21.833Z,99562.97
2023-02-21T08:45:25.589Z,99558.00
2023-02-21T08:46:27.538Z,99559.78
2023-02-21T08:47:29.606Z,99563.81
2023-02-21T08:48:31.838Z,99563.78
2023-02-21T08:49:33.765Z,99568.59
2023-02-21T08:50:35.635Z,99565.06
2023-02-21T08:51:37.722Z,99566.69
2023-02-21T08:52:39.655Z,99568.78
2023-02-21T08:53:41.902Z,99561.19
2023-02-21T08:54:44.426Z,99566.03
2023-02-21T08:55:46.313Z,99561.78
2023-02-21T08:56:49.669Z,99563.09
2023-02-21T08:57:53.234Z,99557.00
2023-02-21T08:58:55.519Z,99565.13
2023-02-21T08:59:57.340Z,99567.03
2023-02-21T09:00:59.261Z,99557.03
2023-02-21T09:02:01.870Z,99559.31
2023-02-21T09:03:03.842Z,99570.72
2023-02-21T09:04:06.132Z,99560.94
2023-02-21T09:05:10.048Z,99563.03
2023-02-21T09:06:12.126Z,99555.09
2023-02-21T09:07:16.277Z,99562.25
2023-02-21T09:08:20.851Z,99559.41
2023-02-21T09:09:23.281Z,99554.13
2023-02-21T09:10:34.323Z,99552.25
2023-02-21T09:11:36.273Z,99546.72
2023-02-21T09:12:39.051Z,99551.47
2023-02-21T09:13:41.791Z,99548.81
2023-02-21T09:14:44.056Z,99554.09
2023-02-21T09:15:45.901Z,99551.47
2023-02-21T09:16:48.073Z,99552.50
2023-02-21T09:17:50.870Z,99555.62
2023-02-21T09:18:55.040Z,99551.13
2023-02-21T09:19:57.338Z,99564.69
2023-02-21T09:20:59.446Z,99556.22
2023-02-21T09:22:03.018Z,99558.09
2023-02-21T09:23:04.899Z,99566.56
2023-02-21T09:24:06.856Z,99560.72
2023-02-21T09:25:13.014Z,99558.53
2023-02-21T09:26:15.663Z,99560.28
2023-02-21T09:27:17.746Z,99553.16
2023-02-21T09:28:20.446Z,99555.34
2023-02-21T09:29:22.892Z,99555.41
2023-02-21T09:30:26.869Z,99552.44
2023-02-21T09:31:29.135Z,99555.03
2023-02-21T09:32:31.166Z,99546.75
2023-02-21T09:33:33.046Z,99545.75
2023-02-21T09:34:34.890Z,99540.56
2023-02-21T09:35:37.178Z,99540.62
2023-02-21T09:36:39.114Z,99547.06
2023-02-21T09:37:42.542Z,99550.53
2023-02-21T09:38:44.435Z,99547.12
2023-02-21T09:39:46.269Z,99553.50
2023-02-21T09:41:00.986Z,99550.34
2023-02-21T09:42:03.092Z,99552.47
2023-02-21T09:43:12.033Z,99544.75
2023-02-21T09:44:26.434Z,99551.94
2023-02-21T09:45:33.303Z,99560.19
2023-02-21T09:46:44.118Z,99571.75
2023-02-21T09:47:51.415Z,99569.78
2023-02-21T09:48:54.156Z,99561.91
2023-02-21T09:50:06.649Z,99571.56
2023-02-21T09:51:11.007Z,99579.03
2023-02-21T09:52:25.302Z,99567.75
2023-02-21T09:53:30.544Z,99582.25
2023-02-21T09:54:36.734Z,99582.59
2023-02-21T09:55:40.529Z,99571.03
2023-02-21T09:56:42.409Z,99585.06
2023-02-21T09:57:44.597Z,99568.13
2023-02-21T09:58:47.080Z,99574.72
2023-02-21T09:59:49.722Z,99579.47
2023-02-21T10:00:51.751Z,99581.09
2023-02-21T10:01:58.466Z,99578.44
2023-02-21T10:03:09.238Z,99580.00
2023-02-21T10:04:26.182Z,99576.81
2023-02-21T10:05:51.291Z,99571.22
2023-02-21T10:07:02.310Z,99579.97
2023-02-21T10:08:12.323Z,99576.28
2023-02-21T10:09:37.110Z,99584.25
2023-02-21T10:10:52.376Z,99590.59
2023-02-21T10:12:08.399Z,99584.78
2023-02-21T10:13:26.522Z,99585.31
2023-02-21T10:14:58.877Z,99585.84
2023-02-21T10:16:12.719Z,99582.13
2023-02-21T10:17:21.545Z,99583.19
2023-02-21T10:18:45.246Z,99589.28
2023-02-21T10:19:58.390Z,99589.00
2023-02-21T10:21:05.591Z,99587.34
2023-02-21T10:22:19.518Z,99576.25
2023-02-21T10:23:27.460Z,99576.31
2023-02-21T10:24:29.656Z,99580.03
2023-02-21T10:25:33.912Z,99583.44
2023-02-21T10:26:41.198Z,99587.66
2023-02-21T10:27:43.189Z,99583.13
2023-02-21T10:28:45.371Z,99574.63
2023-02-21T10:29:56.643Z,99587.00
2023-02-21T10:31:03.205Z,99584.50
2023-02-21T10:32:05.370Z,99588.41
2023-02-21T10:33:08.334Z,99588.69
2023-02-21T10:34:23.304Z,99595.06
2023-02-21T10:35:25.458Z,99586.88
2023-02-21T10:36:28.013Z,99590.84
2023-02-21T10:37:36.237Z,99587.66
2023-02-21T10:38:39.904Z,99589.50
2023-02-21T10:39:47.753Z,99585.44
2023-02-21T10:41:03.877Z,99599.94
2023-02-21T10:42:05.745Z,99586.22
2023-02-21T10:43:07.576Z,99593.03
2023-02-21T10:44:20.024Z,99586.66
2023-02-21T10:45:32.807Z,99588.22
2023-02-21T10:46:40.412Z,99590.56
2023-02-21T10:48:01.356Z,99594.72
2023-02-21T10:49:22.811Z,99598.78
2023-02-21T10:50:51.658Z,99595.75
2023-02-21T10:52:14.449Z,99582.81
2023-02-21T10:53:46.798Z,99579.81
2023-02-21T10:55:31.225Z,99577.69
2023-02-21T10:56:34.708Z,99566.63
2023-02-21T10:57:43.458Z,99577.75
2023-02-21T10:58:54.131Z,99578.56
2023-02-21T10:59:56.141Z,99564.03
2023-02-21T11:01:12.732Z,99569.34
2023-02-21T11:02:42.581Z,99558.41
2023-02-21T11:03:51.311Z,99562.94
2023-02-21T11:04:54.735Z,99560.81
2023-02-21T11:05:58.192Z,99564.88
2023-02-21T11:07:09.896Z,99562.69
2023-02-21T11:08:13.300Z,99564.28
2023-02-21T11:09:41.021Z,99573.06
2023-02-21T11:10:44.442Z,99561.63
2023-02-21T11:11:46.491Z,99561.34
2023-02-21T11:13:06.588Z,99555.56
2023-02-21T11:14:30.214Z,99553.00
2023-02-21T11:15:32.261Z,99556.94
2023-02-21T11:16:35.061Z,99558.81
2023-02-21T11:17:36.959Z,99559.37
2023-02-21T11:18:38.809Z,99563.84
2023-02-21T11:19:45.323Z,99553.03
2023-02-21T11:20:47.737Z,99559.63
2023-02-21T11:21:56.322Z,99557.25
2023-02-21T11:22:58.456Z,99558.31
2023-02-21T11:24:06.442Z,99556.75
2023-02-21T11:25:31.826Z,99552.22
2023-02-21T11:26:49.237Z,99557.78
2023-02-21T11:28:04.869Z,99547.72
2023-02-21T11:29:14.062Z,99554.56
2023-02-21T11:30:20.722Z,99550.34
2023-02-21T11:31:32.950Z,99550.06
2023-02-21T11:32:38.926Z,99559.03
2023-02-21T11:33:49.615Z,99556.19
2023-02-21T11:34:51.726Z,99555.62
2023-02-21T11:36:07.917Z,99559.59
2023-02-21T11:37:10.266Z,99544.25
2023-02-21T11:38:35.835Z,99559.34
2023-02-21T11:39:37.834Z,99553.03
2023-02-21T11:40:51.204Z,99558.34
2023-02-21T11:41:59.333Z,99556.22
2023-02-21T11:43:10.807Z,99555.16
2023-02-21T11:44:40.559Z,99552.53
2023-02-21T11:46:12.900Z,99550.16
2023-02-21T11:47:29.212Z,99549.63
2023-02-21T11:48:42.548Z,99541.91
2023-02-21T11:50:19.095Z,99554.56
2023-02-21T11:51:29.907Z,99549.34
2023-02-21T11:52:39.098Z,99555.44
2023-02-21T11:53:43.443Z,99553.19
2023-02-21T11:54:45.300Z,99539.59
2023-02-21T11:56:06.545Z,99545.34
2023-02-21T11:57:25.718Z,99544.91
2023-02-21T11:58:39.717Z,99542.59
2023-02-21T11:59:50.061Z,99538.47
2023-02-21T12:01:05.669Z,99540.50
2023-02-21T12:02:45.630Z,99550.25
2023-02-21T12:04:09.857Z,99542.91
2023-02-21T12:05:17.722Z,99534.94
2023-02-21T12:06:42.236Z,99541.44
2023-02-21T12:08:09.252Z,99540.25
2023-02-21T12:09:13.854Z,99544.28
2023-02-21T12:10:53.860Z,99535.25
2023-02-21T12:12:04.431Z,99535.63
2023-02-21T12:13:09.443Z,99528.59
2023-02-21T12:15:05.743Z,99537.03
2023-02-21T12:16:07.621Z,99540.56
2023-02-21T12:17:45.995Z,99540.78
2023-02-21T12:19:19.016Z,99536.22
2023-02-21T12:20:26.595Z,99534.72
2023-02-21T12:21:47.193Z,99535.47
2023-02-21T12:23:12.486Z,99533.38
2023-02-21T12:24:28.643Z,99535.28
2023-02-21T12:26:04.152Z,99533.97
2023-02-21T12:27:38.222Z,99534.78
2023-02-21T12:28:58.219Z,99538.13
2023-02-21T12:30:27.176Z,99532.81
2023-02-21T12:31:29.260Z,99533.12
2023-02-21T12:33:08.866Z,99540.62
2023-02-21T12:34:51.198Z,99524.22
2023-02-21T12:36:06.565Z,99530.47
2023-02-21T12:37:17.333Z,99526.06
2023-02-21T12:38:19.202Z,99527.13
2023-02-21T12:39:28.334Z,99526.06
2023-02-21T12:40:51.494Z,99513.91
2023-02-21T12:42:18.482Z,99525.03
2023-02-21T12:43:48.701Z,99532.41
2023-02-21T12:45:46.232Z,99517.62
2023-02-21T12:47:12.005Z,99514.41
2023-02-21T12:48:16.906Z,99516.56
2023-02-21T12:49:30.066Z,99516.78
2023-02-21T12:50:50.814Z,99517.31
2023-02-21T12:52:15.502Z,99507.84
2023-02-21T12:53:29.101Z,99503.59
2023-02-21T12:54:56.776Z,99504.69
2023-02-21T12:56:11.200Z,99502.56
2023-02-21T12:57:18.097Z,99497.56
2023-02-21T12:58:39.063Z,99500.16
2023-02-21T13:00:12.611Z,99492.50
2023-02-21T13:01:24.382Z,99485.91
2023-02-21T13:02:56.010Z,99489.87
2023-02-21T13:04:22.439Z,99495.19
2023-02-21T13:05:39.831Z,99492.25
2023-02-21T13:06:45.189Z,99500.41
2023-02-21T13:07:57.406Z,99499.63
2023-02-21T13:09:13.700Z,99496.97
2023-02-21T13:10:20.780Z,99491.97
2023-02-21T13:11:27.016Z,99492.25
2023-02-21T13:12:40.357Z,99494.34
2023-02-21T13:13:42.399Z,99490.16
2023-02-21T13:14:58.611Z,99492.25
2023-02-21T13:16:06.964Z,99488.56
2023-02-21T13:17:16.903Z,99498.06
2023-02-21T13:18:24.857Z,99496.94
2023-02-21T13:19:42.280Z,99486.38
2023-02-21T13:20:55.052Z,99498.53
2023-02-21T13:22:54.608Z,99491.94
2023-02-21T13:24:22.125Z,99493.53
2023-02-21T13:25:49.817Z,99495.34
2023-02-21T13:27:13.964Z,99496.13
2023-02-21T13:28:23.331Z,99504.09
2023-02-21T13:29:31.028Z,99497.78
2023-02-21T13:30:32.978Z,99508.53
2023-02-21T13:31:39.537Z,99501.97
2023-02-21T13:32:57.657Z,99501.12
2023-02-21T13:34:01.866Z,99498.53
2023-02-21T13:35:07.676Z,99500.94
2023-02-21T13:36:21.634Z,99504.94
2023-02-21T13:37:32.520Z,99502.28
2023-02-21T13:38:34.909Z,99520.53